createdAt,value
2023-05-06T00:02:10.732Z,66.70
2023-05-06T00:04:38.636Z,66.84
2023-05-06T00:07:06.068Z,67.03
2023-05-06T00:09:32.890Z,67.31
2023-05-06T00:11:59.957Z,67.33
2023-05-06T00:14:27.208Z,67.28
2023-05-06T00:16:54.461Z,67.24
2023-05-06T00:19:22.146Z,67.13
2023-05-06T00:21:49.024Z,67.19
2023-05-06T00:24:15.913Z,67.18
2023-05-06T00:26:42.720Z,67.29
2023-05-06T00:29:09.617Z,67.31
2023-05-06T00:31:36.502Z,67.22
2023-05-06T00:34:03.339Z,67.12
2023-05-06T00:36:30.258Z,66.79
2023-05-06T00:38:57.339Z,66.81
2023-05-06T00:41:24.278Z,66.63
2023-05-06T00:43:51.127Z,66.58
2023-05-06T00:46:18.513Z,66.61
2023-05-06T00:48:45.948Z,66.86
2023-05-06T00:51:12.897Z,66.70
2023-05-06T00:53:40.263Z,66.38
2023-05-06T00:56:07.585Z,66.24
2023-05-06T00:58:34.635Z,66.19
2023-05-06T01:01:02.068Z,66.19
2023-05-06T01:03:29.293Z,66.30
2023-05-06T01:06:19.473Z,66.43
2023-05-06T01:09:10.878Z,66.84
2023-05-06T01:11:51.361Z,66.96
2023-05-06T01:14:36.510Z,67.04
2023-05-06T01:17:06.406Z,66.98
2023-05-06T01:19:34.942Z,66.92
2023-05-06T01:22:03.542Z,66.85
2023-05-06T01:24:44.161Z,67.04
2023-05-06T01:27:12.284Z,67.20
2023-05-06T01:29:42.061Z,67.42
2023-05-06T01:32:22.036Z,67.50
2023-05-06T01:34:55.191Z,67.53
2023-05-06T01:37:47.420Z,67.43
2023-05-06T01:40:15.092Z,67.26
2023-05-06T01:42:42.042Z,67.13
2023-05-06T01:45:09.786Z,67.07
2023-05-06T01:47:37.090Z,67.13
2023-05-06T01:50:04.699Z,67.33
2023-05-06T01:52:33.132Z,67.57
2023-05-06T01:54:59.965Z,67.46
2023-05-06T01:57:27.631Z,67.50
2023-05-06T01:59:54.482Z,67.26
2023-05-06T02:02:21.469Z,67.29
2023-05-06T02:04:48.481Z,67.13
2023-05-06T02:07:15.662Z,67.10
2023-05-06T02:09:43.924Z,67.22
2023-05-06T02:12:11.612Z,67.64
2023-05-06T02:14:38.453Z,67.79
2023-05-06T02:17:06.235Z,67.91
2023-05-06T02:19:33.262Z,67.90
2023-05-06T02:22:00.168Z,68.04
2023-05-06T02:24:27.058Z,67.87
2023-05-06T02:26:53.905Z,67.90
2023-05-06T02:29:20.959Z,67.89
2023-05-06T02:31:47.857Z,67.85
2023-05-06T02:34:16.598Z,67.94
2023-05-06T02:36:43.560Z,68.05
2023-05-06T02:39:10.497Z,68.01
2023-05-06T02:41:37.456Z,67.80
2023-05-06T02:44:04.475Z,67.79
2023-05-06T02:46:31.306Z,67.58
2023-05-06T02:48:58.188Z,67.66
2023-05-06T02:51:25.148Z,67.69
2023-05-06T02:53:52.201Z,67.82
2023-05-06T02:56:19.163Z,67.65
2023-05-06T02:58:46.001Z,67.86
2023-05-06T03:01:13.180Z,67.48
2023-05-06T03:03:40.204Z,67.15
2023-05-06T03:06:07.171Z,67.15
2023-05-06T03:08:34.105Z,67.16
2023-05-06T03:11:01.594Z,66.95
2023-05-06T03:13:28.863Z,67.01
2023-05-06T03:15:56.515Z,67.04
2023-05-06T03:18:24.265Z,66.97
2023-05-06T03:20:51.622Z,66.64
2023-05-06T03:23:18.528Z,66.76
2023-05-06T03:25:46.050Z,66.62
2023-05-06T03:28:13.521Z,66.52
2023-05-06T03:30:41.162Z,66.51
2023-05-06T03:33:08.658Z,66.52
2023-05-06T03:35:35.743Z,66.70
2023-05-06T03:38:02.941Z,66.74
2023-05-06T03:40:41.341Z,66.69
2023-05-06T03:43:08.626Z,66.48
2023-05-06T03:45:36.103Z,66.07
2023-05-06T03:48:03.578Z,66.09
2023-05-06T03:50:31.294Z,66.11
2023-05-06T03:52:58.271Z,65.91
2023-05-06T03:55:25.517Z,65.85
2023-05-06T03:57:52.663Z,65.99
2023-05-06T04:00:20.442Z,66.19
2023-05-06T04:02:49.657Z,66.08
2023-05-06T04:05:21.286Z,66.00
2023-05-06T04:07:48.364Z,65.82
2023-05-06T04:10:15.311Z,65.35
2023-05-06T04:12:43.434Z,65.34
2023-05-06T04:15:12.171Z,65.31
2023-05-06T04:17:39.818Z,65.26
2023-05-06T04:20:11.627Z,65.28
2023-05-06T04:22:39.358Z,65.16
2023-05-06T04:25:08.708Z,65.02
2023-05-06T04:27:36.407Z,64.55
2023-05-06T04:30:04.744Z,64.20
2023-05-06T04:32:31.998Z,63.77
2023-05-06T04:34:59.129Z,63.45
2023-05-06T04:37:28.532Z,63.24
2023-05-06T04:40:04.609Z,62.75
2023-05-06T04:42:32.670Z,62.53
2023-05-06T04:45:06.607Z,62.10
2023-05-06T04:47:34.191Z,62.05
2023-05-06T04:50:01.716Z,61.47
2023-05-06T04:52:28.997Z,61.11
2023-05-06T04:54:55.922Z,60.54
2023-05-06T04:57:23.178Z,60.41
2023-05-06T04:59:50.744Z,59.67
2023-05-06T05:02:17.975Z,59.41
2023-05-06T05:04:44.912Z,59.04
2023-05-06T05:07:11.837Z,59.03
2023-05-06T05:09:38.957Z,58.94
2023-05-06T05:12:06.936Z,58.48
2023-05-06T05:14:35.919Z,57.45
2023-05-06T05:17:03.102Z,55.77
2023-05-06T05:19:30.029Z,54.79
2023-05-06T05:21:57.297Z,53.42
2023-05-06T05:24:25.058Z,51.04
2023-05-06T05:26:51.906Z,50.64
2023-05-06T05:29:18.804Z,50.55
2023-05-06T05:31:46.496Z,50.67
2023-05-06T05:34:13.681Z,51.23
2023-05-06T05:36:40.853Z,51.48
2023-05-06T05:39:09.740Z,52.14
2023-05-06T05:41:39.655Z,51.77
2023-05-06T05:44:07.014Z,51.68
2023-05-06T05:46:34.220Z,51.00
2023-05-06T05:49:02.389Z,50.34
2023-05-06T05:51:32.358Z,50.28
2023-05-06T05:54:00.241Z,49.90
2023-05-06T05:56:27.404Z,49.51
2023-05-06T05:58:54.322Z,48.93
2023-05-06T06:01:21.709Z,48.15
2023-05-06T06:03:49.738Z,47.50
2023-05-06T06:06:16.932Z,46.91
2023-05-06T06:08:44.794Z,46.40
2023-05-06T06:11:12.438Z,46.26
2023-05-06T06:13:40.545Z,45.85
2023-05-06T06:16:08.244Z,44.91
2023-05-06T06:18:35.685Z,44.69
2023-05-06T06:21:03.076Z,44.47
2023-05-06T06:23:29.940Z,43.92
2023-05-06T06:25:56.831Z,42.75
2023-05-06T06:28:23.800Z,42.62
2023-05-06T06:30:50.970Z,42.53
2023-05-06T06:33:17.898Z,42.08
2023-05-06T06:35:45.245Z,40.96
2023-05-06T06:38:12.109Z,39.93
2023-05-06T06:40:38.981Z,39.64
2023-05-06T06:43:05.805Z,39.54
2023-05-06T06:45:51.593Z,39.96
2023-05-06T06:48:19.067Z,39.42
2023-05-06T06:50:45.987Z,39.41
2023-05-06T06:53:12.820Z,40.06
2023-05-06T06:55:43.187Z,40.34
2023-05-06T06:58:10.062Z,40.56
2023-05-06T07:00:36.950Z,40.86
2023-05-06T07:03:04.109Z,39.71
2023-05-06T07:05:31.372Z,39.46
2023-05-06T07:07:58.323Z,38.84
2023-05-06T07:10:25.220Z,38.58
2023-05-06T07:12:52.185Z,38.56
2023-05-06T07:15:19.479Z,38.41
2023-05-06T07:17:46.370Z,37.88
2023-05-06T07:20:13.252Z,36.43
2023-05-06T07:22:41.459Z,36.48
2023-05-06T07:25:09.116Z,35.69
2023-05-06T07:27:36.415Z,35.99
2023-05-06T07:30:03.749Z,35.74
2023-05-06T07:32:30.988Z,35.94
2023-05-06T07:34:57.970Z,35.78
2023-05-06T07:37:27.673Z,35.73
2023-05-06T07:39:54.616Z,35.14
2023-05-06T07:42:21.489Z,35.08
2023-05-06T07:44:48.367Z,34.67
2023-05-06T07:47:27.578Z,35.00
2023-05-06T07:49:55.142Z,34.30
2023-05-06T07:52:23.103Z,34.51
2023-05-06T07:54:50.115Z,34.15
2023-05-06T07:57:17.188Z,34.54
2023-05-06T07:59:46.812Z,33.91
2023-05-06T08:02:13.687Z,33.99
2023-05-06T08:04:41.004Z,34.45
2023-05-06T08:07:08.075Z,34.44
2023-05-06T08:09:34.917Z,34.32
2023-05-06T08:12:01.964Z,33.18
2023-05-06T08:14:28.919Z,33.17
2023-05-06T08:16:55.984Z,33.54
2023-05-06T08:19:22.925Z,32.83
2023-05-06T08:21:50.642Z,33.27
2023-05-06T08:24:17.535Z,33.63
2023-05-06T08:26:44.488Z,33.86
2023-05-06T08:29:11.443Z,33.77
2023-05-06T08:31:38.552Z,33.79
2023-05-06T08:34:05.703Z,33.27
2023-05-06T08:36:32.701Z,33.48
2023-05-06T08:38:59.561Z,33.31
2023-05-06T08:41:26.606Z,33.73
2023-05-06T08:43:53.756Z,33.92
2023-05-06T08:46:20.680Z,34.08
2023-05-06T08:48:47.767Z,34.94
2023-05-06T08:51:17.970Z,34.98
2023-05-06T08:53:48.562Z,35.12
2023-05-06T08:56:16.510Z,35.34
2023-05-06T08:58:45.591Z,34.63
2023-05-06T09:01:14.025Z,34.87
2023-05-06T09:03:40.950Z,34.91
2023-05-06T09:06:08.139Z,34.96
2023-05-06T09:08:36.386Z,34.74
2023-05-06T09:11:03.419Z,34.74
2023-05-06T09:13:31.006Z,35.09
2023-05-06T09:15:57.928Z,35.29
2023-05-06T09:18:24.874Z,35.36
2023-05-06T09:20:51.934Z,35.08
2023-05-06T09:23:19.307Z,35.04
2023-05-06T09:25:47.180Z,35.04
2023-05-06T09:28:14.397Z,35.12
2023-05-06T09:30:45.620Z,35.27
2023-05-06T09:33:12.637Z,35.06
2023-05-06T09:35:41.182Z,35.16
2023-05-06T09:38:08.991Z,35.58
2023-05-06T09:40:36.544Z,35.28
2023-05-06T09:43:04.141Z,35.66
2023-05-06T09:45:31.062Z,34.67
2023-05-06T09:47:58.813Z,34.42
2023-05-06T09:50:26.853Z,34.63
2023-05-06T09:52:53.828Z,34.49
2023-05-06T09:55:21.637Z,34.43
2023-05-06T09:57:49.496Z,34.37
2023-05-06T10:00:17.311Z,33.45
2023-05-06T10:02:45.764Z,33.04
2023-05-06T10:05:13.479Z,33.96
2023-05-06T10:07:42.533Z,34.04
2023-05-06T10:10:11.490Z,34.16
2023-05-06T10:12:38.517Z,34.49
2023-05-06T10:15:06.379Z,34.61
2023-05-06T10:17:33.340Z,33.82
2023-05-06T10:20:01.037Z,33.85
2023-05-06T10:22:39.264Z,34.85
2023-05-06T10:25:16.989Z,35.09
2023-05-06T10:27:43.887Z,35.35
2023-05-06T10:30:14.650Z,35.09
2023-05-06T10:32:43.194Z,35.06
2023-05-06T10:35:44.293Z,34.97
2023-05-06T10:38:15.642Z,34.91
2023-05-06T10:40:43.175Z,34.82
2023-05-06T10:43:30.914Z,35.08
2023-05-06T10:46:18.109Z,35.00
2023-05-06T10:49:14.028Z,35.23
2023-05-06T10:51:43.935Z,35.18
2023-05-06T10:54:11.716Z,35.43
2023-05-06T10:56:51.147Z,35.31
2023-05-06T10:59:22.192Z,34.98
2023-05-06T11:01:57.438Z,34.98
2023-05-06T11:04:24.384Z,35.29
2023-05-06T11:06:53.207Z,35.43
2023-05-06T11:09:20.967Z,35.53
2023-05-06T11:12:04.487Z,35.45
2023-05-06T11:14:38.605Z,34.53
2023-05-06T11:17:07.057Z,34.91
2023-05-06T11:19:35.394Z,34.28
2023-05-06T11:22:04.100Z,34.51
2023-05-06T11:24:41.877Z,34.15
2023-05-06T11:27:09.509Z,34.34
2023-05-06T11:29:37.285Z,34.89
2023-05-06T11:32:05.713Z,35.08
2023-05-06T11:34:33.020Z,35.30
2023-05-06T11:37:03.567Z,35.26
2023-05-06T11:39:38.773Z,35.29
2023-05-06T11:42:07.358Z,34.93
2023-05-06T11:44:35.885Z,34.57
2023-05-06T11:47:07.061Z,34.94
2023-05-06T11:49:43.321Z,34.99
2023-05-06T11:52:10.894Z,34.82
2023-05-06T11:54:41.994Z,34.75
2023-05-06T11:57:09.092Z,34.91
2023-05-06T11:59:40.079Z,34.42
2023-05-06T12:02:08.888Z,33.88
2023-05-06T12:04:43.345Z,34.36
2023-05-06T12:07:14.369Z,35.00
2023-05-06T12:09:49.388Z,35.32
2023-05-06T12:12:17.654Z,35.27
2023-05-06T12:14:44.597Z,35.46
2023-05-06T12:17:12.479Z,35.66
2023-05-06T12:19:39.366Z,35.38
2023-05-06T12:22:16.246Z,35.43
2023-05-06T12:24:43.240Z,34.60
2023-05-06T12:27:10.215Z,34.74
2023-05-06T12:29:37.076Z,35.10
2023-05-06T12:32:10.952Z,35.74
2023-05-06T12:34:41.405Z,36.15
2023-05-06T12:37:08.953Z,36.27
2023-05-06T12:39:36.943Z,36.35
2023-05-06T12:42:03.982Z,36.44
2023-05-06T12:44:37.608Z,36.36
2023-05-06T12:47:08.959Z,36.60
2023-05-06T12:49:55.559Z,36.44
2023-05-06T12:52:23.618Z,36.27
2023-05-06T12:54:50.669Z,36.66
2023-05-06T12:57:17.737Z,36.48
2023-05-06T12:59:45.866Z,36.14
2023-05-06T13:02:13.106Z,36.33
2023-05-06T13:04:40.862Z,36.23
2023-05-06T13:07:07.981Z,36.11
2023-05-06T13:09:34.933Z,36.12
2023-05-06T13:12:02.759Z,36.06
2023-05-06T13:14:29.668Z,36.11
2023-05-06T13:16:56.581Z,36.15
2023-05-06T13:19:32.466Z,35.84
2023-05-06T13:22:01.305Z,35.70
2023-05-06T13:24:29.355Z,35.48
2023-05-06T13:26:57.603Z,35.94
2023-05-06T13:29:24.721Z,36.40
2023-05-06T13:31:51.962Z,36.29
2023-05-06T13:34:19.014Z,36.36
2023-05-06T13:36:47.868Z,35.75
2023-05-06T13:39:16.206Z,35.60
2023-05-06T13:41:45.883Z,35.98
2023-05-06T13:44:12.808Z,36.15
2023-05-06T13:46:39.898Z,35.77
2023-05-06T13:49:06.852Z,35.65
2023-05-06T13:51:34.792Z,35.72
2023-05-06T13:54:02.490Z,35.66
2023-05-06T13:56:29.417Z,35.94
2023-05-06T13:58:56.495Z,35.83
2023-05-06T14:01:24.239Z,35.83
2023-05-06T14:03:51.141Z,35.90
2023-05-06T14:06:18.041Z,35.87
2023-05-06T14:08:45.422Z,35.86
2023-05-06T14:11:12.351Z,35.83
2023-05-06T14:13:39.744Z,35.84
2023-05-06T14:16:07.065Z,35.97
2023-05-06T14:18:34.172Z,35.78
2023-05-06T14:21:01.059Z,35.86
2023-05-06T14:23:28.019Z,35.74
2023-05-06T14:25:54.881Z,35.59
2023-05-06T14:28:21.817Z,35.29
2023-05-06T14:30:50.963Z,35.47
2023-05-06T14:33:17.860Z,35.75
2023-05-06T14:35:46.169Z,35.52
2023-05-06T14:38:13.354Z,35.44
2023-05-06T14:40:40.645Z,35.72
2023-05-06T14:43:07.644Z,36.01
2023-05-06T14:45:35.157Z,35.92
2023-05-06T14:48:02.477Z,36.28
2023-05-06T14:50:30.317Z,36.30
2023-05-06T14:52:57.450Z,36.47
2023-05-06T14:55:24.704Z,36.15
2023-05-06T14:57:51.657Z,36.02
2023-05-06T15:00:19.446Z,36.44
2023-05-06T15:02:46.430Z,36.21
2023-05-06T15:05:13.890Z,36.53
2023-05-06T15:07:41.898Z,36.50
2023-05-06T15:10:09.236Z,36.38
2023-05-06T15:12:37.209Z,36.51
2023-05-06T15:15:05.511Z,36.78
2023-05-06T15:17:32.831Z,36.85
2023-05-06T15:19:59.859Z,36.84
2023-05-06T15:22:26.841Z,36.99
2023-05-06T15:24:53.751Z,36.73
2023-05-06T15:27:20.697Z,36.55
2023-05-06T15:29:47.554Z,36.14
2023-05-06T15:32:14.405Z,36.25
2023-05-06T15:34:41.464Z,36.55
2023-05-06T15:37:08.385Z,36.67
2023-05-06T15:39:39.150Z,36.89
2023-05-06T15:42:06.432Z,37.23
2023-05-06T15:44:33.992Z,37.01
2023-05-06T15:47:01.026Z,36.59
2023-05-06T15:52:00.566Z,37.31
2023-05-06T15:54:28.202Z,37.53
2023-05-06T15:56:55.152Z,37.88
2023-05-06T15:59:22.006Z,37.85
2023-05-06T16:04:19.014Z,38.09
2023-05-06T16:06:46.123Z,38.04
2023-05-06T16:09:13.093Z,37.90
2023-05-06T16:11:39.954Z,38.22
2023-05-06T16:14:06.874Z,38.50
2023-05-06T16:16:33.923Z,38.98
2023-05-06T16:19:00.876Z,39.33
2023-05-06T16:21:28.778Z,39.39
2023-05-06T16:23:55.672Z,39.72
2023-05-06T16:26:22.569Z,39.83
2023-05-06T16:28:49.518Z,39.75
2023-05-06T16:31:16.477Z,40.09
2023-05-06T16:33:43.405Z,40.34
2023-05-06T16:36:10.561Z,40.59
2023-05-06T16:38:37.831Z,40.82
2023-05-06T16:41:05.408Z,40.88
2023-05-06T16:43:32.248Z,41.12
2023-05-06T16:45:59.184Z,41.40
2023-05-06T16:48:26.290Z,41.74
2023-05-06T16:50:53.235Z,42.09
2023-05-06T16:53:20.880Z,42.23
2023-05-06T16:55:48.823Z,42.59
2023-05-06T16:58:15.995Z,42.91
2023-05-06T17:00:43.243Z,43.03
2023-05-06T17:03:10.472Z,43.30
2023-05-06T17:05:37.753Z,43.33
2023-05-06T17:08:05.591Z,43.71
2023-05-06T17:10:32.600Z,43.87
2023-05-06T17:12:59.644Z,44.13
2023-05-06T17:15:26.784Z,44.11
2023-05-06T17:17:53.755Z,44.35
2023-05-06T17:20:21.012Z,44.52
2023-05-06T17:22:48.156Z,44.66
2023-05-06T17:25:15.370Z,44.52
2023-05-06T17:27:42.350Z,44.79
2023-05-06T17:30:12.595Z,44.78
2023-05-06T17:32:39.878Z,45.24
2023-05-06T17:35:07.900Z,45.47
2023-05-06T17:37:34.988Z,46.00
2023-05-06T17:40:02.368Z,46.02
2023-05-06T17:42:30.300Z,46.42
2023-05-06T17:44:57.188Z,46.49
2023-05-06T17:47:24.132Z,46.87
2023-05-06T17:49:52.712Z,46.99
2023-05-06T17:52:20.051Z,47.35
2023-05-06T17:54:57.144Z,47.44
2023-05-06T17:57:30.523Z,47.42
2023-05-06T17:59:57.384Z,47.52
2023-05-06T18:02:24.336Z,47.59
2023-05-06T18:04:51.888Z,47.96
2023-05-06T18:07:18.772Z,48.23
2023-05-06T18:09:51.900Z,48.31
2023-05-06T18:12:19.813Z,48.81
2023-05-06T18:14:47.598Z,48.58
2023-05-06T18:17:14.455Z,48.62
2023-05-06T18:19:41.362Z,48.72
2023-05-06T18:22:08.237Z,48.70
2023-05-06T18:24:35.166Z,49.33
2023-05-06T18:27:02.536Z,49.37
2023-05-06T18:29:30.522Z,49.51
2023-05-06T18:31:57.582Z,49.59
2023-05-06T18:34:24.555Z,49.83
2023-05-06T18:36:51.554Z,49.83
2023-05-06T18:39:18.509Z,49.75
2023-05-06T18:41:45.559Z,49.59
2023-05-06T18:44:12.422Z,49.80
2023-05-06T18:46:39.563Z,49.91
2023-05-06T18:49:08.172Z,50.08
2023-05-06T18:51:35.103Z,50.36
2023-05-06T18:54:02.060Z,50.54
2023-05-06T18:56:29.037Z,50.73
2023-05-06T18:58:55.971Z,50.81
2023-05-06T19:01:23.064Z,51.02
2023-05-06T19:03:50.215Z,51.23
2023-05-06T19:06:17.214Z,51.26
2023-05-06T19:08:44.173Z,51.51
2023-05-06T19:11:15.638Z,51.76
2023-05-06T19:13:46.496Z,52.12
2023-05-06T19:16:13.896Z,52.28
2023-05-06T19:18:40.973Z,52.34
2023-05-06T19:21:12.044Z,52.58
2023-05-06T19:23:39.284Z,52.79
2023-05-06T19:26:06.757Z,52.82
2023-05-06T19:28:34.489Z,52.86
2023-05-06T19:31:01.641Z,53.02
2023-05-06T19:33:28.925Z,53.05
2023-05-06T19:35:55.874Z,53.09
2023-05-06T19:38:22.726Z,53.37
2023-05-06T19:40:49.644Z,53.33
2023-05-06T19:43:16.826Z,53.63
2023-05-06T19:45:43.758Z,53.64
2023-05-06T19:48:10.767Z,53.47
2023-05-06T19:50:37.679Z,53.80
2023-05-06T19:53:04.540Z,53.85
2023-05-06T19:55:31.788Z,53.87
2023-05-06T19:57:58.960Z,53.89
2023-05-06T20:00:28.121Z,54.08
2023-05-06T20:02:57.015Z,54.70
2023-05-06T20:05:24.735Z,54.81
2023-05-06T20:07:51.657Z,54.82
2023-05-06T20:10:18.615Z,54.60
2023-05-06T20:12:45.518Z,54.94
2023-05-06T20:15:12.779Z,54.74
2023-05-06T20:17:39.973Z,54.65
2023-05-06T20:20:11.819Z,54.94
2023-05-06T20:22:39.641Z,54.83
2023-05-06T20:25:16.301Z,54.79
2023-05-06T20:27:43.981Z,55.07
2023-05-06T20:30:11.456Z,54.65
2023-05-06T20:32:39.409Z,54.69
2023-05-06T20:35:06.898Z,54.53
2023-05-06T20:37:35.427Z,54.34
2023-05-06T20:40:04.914Z,54.32
2023-05-06T20:42:32.024Z,54.94
2023-05-06T20:44:59.052Z,54.96
2023-05-06T20:47:26.523Z,54.74
2023-05-06T20:49:53.683Z,55.47
2023-05-06T20:52:21.765Z,54.97
2023-05-06T20:54:48.862Z,55.49
2023-05-06T20:57:16.697Z,55.08
2023-05-06T20:59:43.666Z,55.02
2023-05-06T21:02:10.664Z,55.40
2023-05-06T21:04:37.726Z,55.31
2023-05-06T21:07:04.675Z,55.06
2023-05-06T21:09:31.614Z,55.38
2023-05-06T21:11:58.579Z,55.62
2023-05-06T21:14:26.272Z,55.62
2023-05-06T21:16:53.386Z,55.13
2023-05-06T21:19:20.642Z,55.43
2023-05-06T21:21:47.566Z,55.41
2023-05-06T21:24:14.554Z,55.08
2023-05-06T21:26:41.611Z,55.05
2023-05-06T21:29:08.509Z,55.27
2023-05-06T21:31:35.466Z,55.51
2023-05-06T21:34:03.681Z,55.40
2023-05-06T21:36:31.350Z,55.66
2023-05-06T21:39:08.066Z,55.59
2023-05-06T21:41:36.254Z,55.65
2023-05-06T21:44:07.144Z,55.36
2023-05-06T21:46:34.975Z,55.47
2023-05-06T21:49:02.047Z,55.45
2023-05-06T21:51:30.578Z,55.22
2023-05-06T21:53:57.452Z,55.13
2023-05-06T21:56:24.434Z,55.11
2023-05-06T21:58:52.938Z,55.09
2023-05-06T22:01:19.946Z,54.99
2023-05-06T22:03:48.042Z,54.90
2023-05-06T22:06:15.736Z,55.02
2023-05-06T22:08:42.725Z,54.70
2023-05-06T22:11:09.612Z,54.98
2023-05-06T22:13:36.685Z,54.70
2023-05-06T22:16:04.187Z,55.15
2023-05-06T22:18:31.843Z,54.68
2023-05-06T22:20:58.873Z,55.39
2023-05-06T22:23:26.044Z,55.23
2023-05-06T22:25:52.994Z,53.92
2023-05-06T22:28:20.134Z,54.32
2023-05-06T22:30:47.097Z,53.51
2023-05-06T22:33:14.334Z,53.47
2023-05-06T22:35:41.283Z,53.49
2023-05-06T22:38:08.373Z,53.33
2023-05-06T22:40:35.266Z,53.57
2023-05-06T22:43:02.136Z,53.30
2023-05-06T22:45:29.114Z,53.25
2023-05-06T22:47:56.121Z,52.87
2023-05-06T22:50:23.196Z,53.44
2023-05-06T22:52:50.155Z,53.14
2023-05-06T22:55:17.098Z,53.12
2023-05-06T22:57:44.365Z,53.15
2023-05-06T23:00:12.909Z,53.18
2023-05-06T23:02:40.058Z,53.10
2023-05-06T23:05:07.455Z,53.30
2023-05-06T23:07:34.405Z,52.97
2023-05-06T23:10:01.361Z,52.91
2023-05-06T23:12:32.401Z,52.78
2023-05-06T23:15:00.380Z,52.32
2023-05-06T23:17:27.345Z,52.09
2023-05-06T23:19:59.198Z,52.18
2023-05-06T23:22:26.850Z,52.33
2023-05-06T23:24:55.083Z,52.25
2023-05-06T23:27:22.030Z,52.43
2023-05-06T23:29:49.108Z,52.36
2023-05-06T23:32:15.982Z,52.23
2023-05-06T23:34:42.863Z,52.28
2023-05-06T23:37:11.872Z,52.01
2023-05-06T23:39:39.090Z,52.50
2023-05-06T23:42:06.127Z,52.45
2023-05-06T23:44:32.975Z,52.59
2023-05-06T23:46:59.891Z,52.81
2023-05-06T23:49:26.718Z,52.99
2023-05-06T23:51:53.650Z,52.88
2023-05-06T23:54:21.050Z,52.98
2023-05-06T23:56:48.037Z,52.95
2023-05-06T23:59:14.881Z,53.16
